Rockport, Utah
Current Conditions -  °F | °C
As of 2:55 PM on Wednesday 28 Jan 2015 (Local Time) from K36U Reporting Station
Overcast Overcast  
Wind Chill: 43°   Ceiling: 6500
Heat Index: 43°   Visibility: 10mi
Dew Point: 34°   Wind: 0mph
Humidity: 70%   Direction: NA
Pressure: 30.27"   Gusts: NA
Location:  40.7654°N, 111.287°W
Report Text: K36U 282155Z AUTO 00000KT 10SM SCT046 SCT055 OVC065 06/01 A3027 RMK AO2
Loading
Personal Weather Stations






























Interactive Weather Map New forecast layout! Learn more

10-Day Weather Forecast

Advertisements
Track Severe Weather on mobile